KCNU

Chanute Martin Johnson Airport

Chanute, Kansas, USA
METAR KCNU 221952Z AUTO 18010KT 10SM CLR 21/09 A3013 RMK AO2 SLP198 T02110094
Observed Flight Rules
Oct-22 @ 19:52 UTC (56 minutes ago) Visual Flight Rules
Wind Visibility Clouds
180° at 10 knots 10 miles
  • Clear skies
Temperatures Readings
Current 21°C / 70°F
Dewpoint 9°C / 48°F
Humidity 46%
Altimeter 30.13" Hg
Pressure 1019.8 hPa
Elevation 297
METAR KCNU 221952Z AUTO 18010KT 10SM CLR 21/09 A3013 RMK AO2 SLP198 T02110094
Observed Flight Rules
Oct-22 @ 19:52 UTC
(56 minutes ago)
VFR
Wind Visibility
180° at 10 knots 10 miles
Clouds
  • Clear skies
Temperature Dewpoint
21°C / 70°F 9°C / 48°F
Humidity Altimeter Pressure
46% 30.13" Hg 1019.8 hPa